createdAt,value
2023-04-28T00:01:27.938Z,9.6
2023-04-28T00:16:37.800Z,9.6
2023-04-28T00:31:48.104Z,9.6
2023-04-28T00:46:58.000Z,9.6
2023-04-28T01:02:07.783Z,9.5
2023-04-28T01:17:18.031Z,9.4
2023-04-28T01:32:27.465Z,9.4
2023-04-28T01:47:37.742Z,9.4
2023-04-28T02:02:47.560Z,9.4
2023-04-28T02:17:57.863Z,9.3
2023-04-28T02:33:08.911Z,9.2
2023-04-28T02:48:19.228Z,9.1
2023-04-28T03:03:29.392Z,9
2023-04-28T03:18:39.517Z,8.9
2023-04-28T03:33:48.668Z,8.9
2023-04-28T03:48:58.401Z,8.9
2023-04-28T04:04:08.892Z,8.9
2023-04-28T04:19:19.618Z,8.9
2023-04-28T04:34:29.434Z,9
2023-04-28T04:49:39.477Z,9
2023-04-28T05:04:49.746Z,9.1
2023-04-28T05:20:00.750Z,9.2
2023-04-28T05:35:11.536Z,9.3
2023-04-28T05:50:21.192Z,9.4
2023-04-28T06:05:31.710Z,9.7
2023-04-28T06:20:43.210Z,10
2023-04-28T06:35:53.020Z,10.2
2023-04-28T06:51:03.053Z,10.4
2023-04-28T07:06:14.581Z,10.7
2023-04-28T07:21:25.145Z,10.9
2023-04-28T07:36:35.431Z,11.1
2023-04-28T07:51:45.456Z,11.5
2023-04-28T08:06:55.454Z,11.8
2023-04-28T08:22:05.775Z,12.1
2023-04-28T08:37:16.209Z,12.3
2023-04-28T08:52:26.456Z,12.6
2023-04-28T09:07:38.437Z,12.9
2023-04-28T09:22:48.999Z,12.9
2023-04-28T09:37:59.393Z,12.9
2023-04-28T09:53:08.947Z,12.9
2023-04-28T10:08:18.563Z,13
2023-04-28T10:23:28.410Z,13.1
2023-04-28T10:38:38.572Z,13.3
2023-04-28T10:53:48.911Z,13.7
2023-04-28T11:08:58.802Z,14.2
2023-04-28T11:24:09.244Z,14.8
2023-04-28T11:39:19.311Z,14.7
2023-04-28T11:54:29.201Z,14.5
2023-04-28T12:09:39.160Z,14.4
2023-04-28T12:24:49.278Z,14.4
2023-04-28T12:39:59.588Z,14.7
2023-04-28T12:55:09.784Z,14.8
2023-04-28T13:10:19.329Z,14.8
2023-04-28T13:25:28.420Z,14.6
2023-04-28T13:40:37.863Z,14.5
2023-04-28T13:55:49.508Z,14.6
2023-04-28T14:11:00.237Z,14.7
2023-04-28T14:26:09.979Z,14.6
2023-04-28T14:41:20.047Z,14.5
2023-04-28T14:56:32.673Z,15.3
2023-04-28T15:11:44.032Z,15.3
2023-04-28T15:26:54.386Z,16
2023-04-28T15:42:04.144Z,15.5
2023-04-28T15:57:15.590Z,15.2
2023-04-28T16:12:25.041Z,14.7
2023-04-28T16:27:34.220Z,14.4
2023-04-28T16:42:43.674Z,14.1
2023-04-28T16:57:53.666Z,13.9
2023-04-28T17:13:02.810Z,13.8
2023-04-28T17:28:15.359Z,13.8
2023-04-28T17:43:25.749Z,13.8
2023-04-28T17:58:35.490Z,13.7
2023-04-28T18:13:45.314Z,13.6
2023-04-28T18:28:57.517Z,13.6
2023-04-28T18:44:07.168Z,13.5
2023-04-28T18:59:18.304Z,13.4
2023-04-28T19:14:27.756Z,13.4
2023-04-28T19:29:37.152Z,13.3
2023-04-28T19:44:46.429Z,13.2
2023-04-28T19:59:55.928Z,13.2
2023-04-28T20:15:05.767Z,13.2
2023-04-28T20:30:15.351Z,13.1
2023-04-28T20:45:24.985Z,13.1
2023-04-28T21:00:35.331Z,13.1
2023-04-28T21:15:45.700Z,13.3
2023-04-28T21:30:55.103Z,13.4
2023-04-28T21:46:04.769Z,13.4
2023-04-28T22:01:15.402Z,13.4
2023-04-28T22:16:25.283Z,13.4
2023-04-28T22:31:35.218Z,13.3
2023-04-28T22:46:45.998Z,13.3
2023-04-28T23:01:55.288Z,13.2
2023-04-28T23:17:05.224Z,13.1
2023-04-28T23:32:15.127Z,13.1
2023-04-28T23:47:25.092Z,13
